sensor_id;sensor_type;location;lat;lon;timestamp;P1;durP1;ratioP1;P2;durP2;ratioP2
40501;SDS011;29631;49.168;9.848;2022-10-16T00:01:08;1.95;;;0.80;;
40501;SDS011;29631;49.168;9.848;2022-10-16T00:03:37;1.95;;;0.80;;
40501;SDS011;29631;49.168;9.848;2022-10-16T00:06:04;2.13;;;0.90;;
40501;SDS011;29631;49.168;9.848;2022-10-16T00:08:31;1.92;;;0.90;;
40501;SDS011;29631;49.168;9.848;2022-10-16T00:11:01;0.70;;;0.70;;
40501;SDS011;29631;49.168;9.848;2022-10-16T00:13:33;1.95;;;0.90;;
40501;SDS011;29631;49.168;9.848;2022-10-16T00:16:01;1.50;;;0.70;;
40501;SDS011;29631;49.168;9.848;2022-10-16T00:18:28;0.65;;;0.65;;
40501;SDS011;29631;49.168;9.848;2022-10-16T00:20:55;0.93;;;0.73;;
40501;SDS011;29631;49.168;9.848;2022-10-16T00:23:26;1.80;;;0.80;;
40501;SDS011;29631;49.168;9.848;2022-10-16T00:25:58;0.80;;;0.80;;
40501;SDS011;29631;49.168;9.848;2022-10-16T00:28:28;1.30;;;0.80;;
40501;SDS011;29631;49.168;9.848;2022-10-16T00:30:54;0.70;;;0.70;;
40501;SDS011;29631;49.168;9.848;2022-10-16T00:33:20;1.45;;;0.70;;
40501;SDS011;29631;49.168;9.848;2022-10-16T00:35:46;1.27;;;0.73;;
40501;SDS011;29631;49.168;9.848;2022-10-16T00:38:12;0.95;;;0.80;;
40501;SDS011;29631;49.168;9.848;2022-10-16T00:40:39;3.72;;;0.95;;
40501;SDS011;29631;49.168;9.848;2022-10-16T00:43:11;0.80;;;0.80;;
40501;SDS011;29631;49.168;9.848;2022-10-16T00:46:27;0.50;;;0.50;;
40501;SDS011;29631;49.168;9.848;2022-10-16T00:49:07;0.70;;;0.70;;
40501;SDS011;29631;49.168;9.848;2022-10-16T00:51:41;0.75;;;0.75;;
40501;SDS011;29631;49.168;9.848;2022-10-16T00:54:21;0.70;;;0.70;;
40501;SDS011;29631;49.168;9.848;2022-10-16T00:56:50;0.80;;;0.80;;
40501;SDS011;29631;49.168;9.848;2022-10-16T00:59:19;0.68;;;0.68;;
40501;SDS011;29631;49.168;9.848;2022-10-16T01:01:51;1.20;;;1.10;;
40501;SDS011;29631;49.168;9.848;2022-10-16T01:04:18;0.90;;;0.90;;
40501;SDS011;29631;49.168;9.848;2022-10-16T01:07:03;0.60;;;0.60;;
40501;SDS011;29631;49.168;9.848;2022-10-16T01:09:57;0.80;;;0.80;;
40501;SDS011;29631;49.168;9.848;2022-10-16T01:12:35;1.10;;;1.00;;
40501;SDS011;29631;49.168;9.848;2022-10-16T01:15:08;0.82;;;0.63;;
40501;SDS011;29631;49.168;9.848;2022-10-16T01:18:08;0.80;;;0.80;;
40501;SDS011;29631;49.168;9.848;2022-10-16T01:23:37;1.45;;;0.95;;
40501;SDS011;29631;49.168;9.848;2022-10-16T01:31:59;0.80;;;0.80;;
40501;SDS011;29631;49.168;9.848;2022-10-16T01:38:03;0.90;;;0.90;;
40501;SDS011;29631;49.168;9.848;2022-10-16T01:40:38;0.82;;;0.82;;
40501;SDS011;29631;49.168;9.848;2022-10-16T01:43:11;0.90;;;0.90;;
40501;SDS011;29631;49.168;9.848;2022-10-16T01:45:47;2.65;;;0.88;;
40501;SDS011;29631;49.168;9.848;2022-10-16T01:48:17;0.93;;;0.80;;
40501;SDS011;29631;49.168;9.848;2022-10-16T01:50:48;0.93;;;0.93;;
40501;SDS011;29631;49.168;9.848;2022-10-16T01:53:30;0.73;;;0.73;;
40501;SDS011;29631;49.168;9.848;2022-10-16T01:55:57;0.93;;;0.60;;
40501;SDS011;29631;49.168;9.848;2022-10-16T01:58:25;3.63;;;1.13;;
40501;SDS011;29631;49.168;9.848;2022-10-16T02:00:52;0.90;;;0.90;;
40501;SDS011;29631;49.168;9.848;2022-10-16T02:03:20;1.25;;;1.00;;
40501;SDS011;29631;49.168;9.848;2022-10-16T02:08:16;0.93;;;0.93;;
40501;SDS011;29631;49.168;9.848;2022-10-16T02:10:42;2.05;;;0.93;;
40501;SDS011;29631;49.168;9.848;2022-10-16T02:15:42;0.80;;;0.80;;
40501;SDS011;29631;49.168;9.848;2022-10-16T02:18:07;2.47;;;0.95;;
40501;SDS011;29631;49.168;9.848;2022-10-16T02:20:41;1.67;;;1.00;;
40501;SDS011;29631;49.168;9.848;2022-10-16T02:23:24;3.10;;;0.95;;
40501;SDS011;29631;49.168;9.848;2022-10-16T02:29:22;1.02;;;1.02;;
40501;SDS011;29631;49.168;9.848;2022-10-16T02:31:52;2.47;;;0.90;;
40501;SDS011;29631;49.168;9.848;2022-10-16T02:34:23;0.90;;;0.90;;
40501;SDS011;29631;49.168;9.848;2022-10-16T02:36:50;0.80;;;0.80;;
40501;SDS011;29631;49.168;9.848;2022-10-16T02:39:17;1.00;;;1.00;;
40501;SDS011;29631;49.168;9.848;2022-10-16T02:41:44;4.22;;;1.08;;
40501;SDS011;29631;49.168;9.848;2022-10-16T02:44:10;1.17;;;0.77;;
40501;SDS011;29631;49.168;9.848;2022-10-16T02:46:36;0.77;;;0.77;;
40501;SDS011;29631;49.168;9.848;2022-10-16T02:49:02;1.20;;;0.90;;
40501;SDS011;29631;49.168;9.848;2022-10-16T02:51:28;2.05;;;0.82;;
40501;SDS011;29631;49.168;9.848;2022-10-16T02:53:54;0.93;;;0.93;;
40501;SDS011;29631;49.168;9.848;2022-10-16T02:56:20;0.93;;;0.93;;
40501;SDS011;29631;49.168;9.848;2022-10-16T02:58:46;0.90;;;0.90;;
40501;SDS011;29631;49.168;9.848;2022-10-16T03:01:12;1.10;;;1.10;;
40501;SDS011;29631;49.168;9.848;2022-10-16T03:03:39;0.90;;;0.90;;
40501;SDS011;29631;49.168;9.848;2022-10-16T03:06:05;1.48;;;0.90;;
40501;SDS011;29631;49.168;9.848;2022-10-16T03:08:31;1.00;;;1.00;;
40501;SDS011;29631;49.168;9.848;2022-10-16T03:10:56;1.33;;;1.13;;
40501;SDS011;29631;49.168;9.848;2022-10-16T03:13:22;1.38;;;0.95;;
40501;SDS011;29631;49.168;9.848;2022-10-16T03:15:48;1.02;;;1.00;;
40501;SDS011;29631;49.168;9.848;2022-10-16T03:18:14;1.63;;;0.95;;
40501;SDS011;29631;49.168;9.848;2022-10-16T03:20:40;1.10;;;0.95;;
40501;SDS011;29631;49.168;9.848;2022-10-16T03:23:07;1.30;;;0.90;;
40501;SDS011;29631;49.168;9.848;2022-10-16T03:25:33;1.45;;;0.80;;
40501;SDS011;29631;49.168;9.848;2022-10-16T03:27:59;0.77;;;0.77;;
40501;SDS011;29631;49.168;9.848;2022-10-16T03:30:25;2.03;;;0.93;;
40501;SDS011;29631;49.168;9.848;2022-10-16T03:32:51;1.27;;;0.88;;
40501;SDS011;29631;49.168;9.848;2022-10-16T03:35:19;0.90;;;0.90;;
40501;SDS011;29631;49.168;9.848;2022-10-16T03:37:48;0.80;;;0.80;;
40501;SDS011;29631;49.168;9.848;2022-10-16T03:40:15;0.93;;;0.80;;
40501;SDS011;29631;49.168;9.848;2022-10-16T03:42:42;0.80;;;0.80;;
40501;SDS011;29631;49.168;9.848;2022-10-16T03:45:08;1.33;;;0.82;;
40501;SDS011;29631;49.168;9.848;2022-10-16T03:47:35;2.50;;;0.90;;
40501;SDS011;29631;49.168;9.848;2022-10-16T03:50:01;1.00;;;1.00;;
40501;SDS011;29631;49.168;9.848;2022-10-16T03:52:28;1.00;;;1.00;;
40501;SDS011;29631;49.168;9.848;2022-10-16T03:54:54;0.75;;;0.75;;
40501;SDS011;29631;49.168;9.848;2022-10-16T03:57:19;1.50;;;1.00;;
40501;SDS011;29631;49.168;9.848;2022-10-16T03:59:45;0.90;;;0.90;;
40501;SDS011;29631;49.168;9.848;2022-10-16T04:02:11;1.63;;;0.98;;
40501;SDS011;29631;49.168;9.848;2022-10-16T04:04:38;0.90;;;0.90;;
40501;SDS011;29631;49.168;9.848;2022-10-16T04:07:03;0.98;;;0.80;;
40501;SDS011;29631;49.168;9.848;2022-10-16T04:09:29;0.70;;;0.70;;
40501;SDS011;29631;49.168;9.848;2022-10-16T04:11:55;1.20;;;0.90;;
40501;SDS011;29631;49.168;9.848;2022-10-16T04:14:21;2.92;;;1.00;;
40501;SDS011;29631;49.168;9.848;2022-10-16T04:16:47;1.80;;;0.85;;
40501;SDS011;29631;49.168;9.848;2022-10-16T04:19:13;0.90;;;0.90;;
40501;SDS011;29631;49.168;9.848;2022-10-16T04:21:38;0.90;;;0.90;;
40501;SDS011;29631;49.168;9.848;2022-10-16T04:24:04;2.28;;;1.00;;
40501;SDS011;29631;49.168;9.848;2022-10-16T04:26:30;1.50;;;0.85;;
40501;SDS011;29631;49.168;9.848;2022-10-16T04:28:56;1.92;;;1.08;;
40501;SDS011;29631;49.168;9.848;2022-10-16T04:31:21;0.90;;;0.90;;
40501;SDS011;29631;49.168;9.848;2022-10-16T04:33:47;0.82;;;0.82;;
40501;SDS011;29631;49.168;9.848;2022-10-16T04:36:13;0.90;;;0.90;;
40501;SDS011;29631;49.168;9.848;2022-10-16T04:38:39;1.70;;;1.00;;
40501;SDS011;29631;49.168;9.848;2022-10-16T04:41:05;1.52;;;1.00;;
40501;SDS011;29631;49.168;9.848;2022-10-16T04:43:33;0.98;;;0.88;;
40501;SDS011;29631;49.168;9.848;2022-10-16T04:45:59;2.42;;;0.65;;
40501;SDS011;29631;49.168;9.848;2022-10-16T04:48:25;0.90;;;0.80;;
40501;SDS011;29631;49.168;9.848;2022-10-16T04:50:51;0.95;;;0.88;;
40501;SDS011;29631;49.168;9.848;2022-10-16T04:53:17;0.85;;;0.85;;
40501;SDS011;29631;49.168;9.848;2022-10-16T04:55:43;1.20;;;0.65;;
40501;SDS011;29631;49.168;9.848;2022-10-16T04:58:09;0.80;;;0.80;;
40501;SDS011;29631;49.168;9.848;2022-10-16T05:00:34;0.65;;;0.65;;
40501;SDS011;29631;49.168;9.848;2022-10-16T05:03:01;0.93;;;0.80;;
40501;SDS011;29631;49.168;9.848;2022-10-16T05:05:30;1.23;;;0.90;;
40501;SDS011;29631;49.168;9.848;2022-10-16T05:07:56;1.65;;;0.90;;
40501;SDS011;29631;49.168;9.848;2022-10-16T05:10:22;0.75;;;0.70;;
40501;SDS011;29631;49.168;9.848;2022-10-16T05:12:48;2.92;;;0.80;;
40501;SDS011;29631;49.168;9.848;2022-10-16T05:15:13;0.70;;;0.70;;
40501;SDS011;29631;49.168;9.848;2022-10-16T05:17:39;2.80;;;0.73;;
40501;SDS011;29631;49.168;9.848;2022-10-16T05:20:05;0.70;;;0.70;;
40501;SDS011;29631;49.168;9.848;2022-10-16T05:22:31;0.98;;;0.90;;
40501;SDS011;29631;49.168;9.848;2022-10-16T05:24:57;0.63;;;0.63;;
40501;SDS011;29631;49.168;9.848;2022-10-16T05:27:23;0.80;;;0.80;;
40501;SDS011;29631;49.168;9.848;2022-10-16T05:29:48;1.50;;;1.00;;
40501;SDS011;29631;49.168;9.848;2022-10-16T05:32:15;0.77;;;0.77;;
40501;SDS011;29631;49.168;9.848;2022-10-16T05:34:43;0.90;;;0.90;;
40501;SDS011;29631;49.168;9.848;2022-10-16T05:37:09;1.15;;;0.88;;
40501;SDS011;29631;49.168;9.848;2022-10-16T05:39:36;1.55;;;0.93;;
40501;SDS011;29631;49.168;9.848;2022-10-16T05:42:03;0.80;;;0.80;;
40501;SDS011;29631;49.168;9.848;2022-10-16T05:44:30;1.08;;;0.80;;
40501;SDS011;29631;49.168;9.848;2022-10-16T05:46:56;1.70;;;0.80;;
40501;SDS011;29631;49.168;9.848;2022-10-16T05:49:21;0.85;;;0.80;;
40501;SDS011;29631;49.168;9.848;2022-10-16T05:51:47;0.60;;;0.60;;
40501;SDS011;29631;49.168;9.848;2022-10-16T05:54:13;0.70;;;0.70;;
40501;SDS011;29631;49.168;9.848;2022-10-16T05:56:39;0.70;;;0.70;;
40501;SDS011;29631;49.168;9.848;2022-10-16T05:59:05;0.90;;;0.82;;
40501;SDS011;29631;49.168;9.848;2022-10-16T06:01:31;0.80;;;0.80;;
40501;SDS011;29631;49.168;9.848;2022-10-16T06:03:57;2.50;;;0.68;;
40501;SDS011;29631;49.168;9.848;2022-10-16T06:06:24;1.25;;;0.95;;
40501;SDS011;29631;49.168;9.848;2022-10-16T06:08:53;0.70;;;0.70;;
40501;SDS011;29631;49.168;9.848;2022-10-16T06:11:21;1.27;;;1.10;;
40501;SDS011;29631;49.168;9.848;2022-10-16T06:13:51;2.63;;;0.73;;
40501;SDS011;29631;49.168;9.848;2022-10-16T06:16:19;1.63;;;1.00;;
40501;SDS011;29631;49.168;9.848;2022-10-16T06:18:45;1.00;;;0.90;;
40501;SDS011;29631;49.168;9.848;2022-10-16T06:21:16;1.85;;;1.00;;
40501;SDS011;29631;49.168;9.848;2022-10-16T06:23:44;0.80;;;0.80;;
40501;SDS011;29631;49.168;9.848;2022-10-16T06:26:11;2.78;;;0.75;;
40501;SDS011;29631;49.168;9.848;2022-10-16T06:28:39;1.42;;;0.98;;
40501;SDS011;29631;49.168;9.848;2022-10-16T06:31:07;1.58;;;0.95;;
40501;SDS011;29631;49.168;9.848;2022-10-16T06:33:34;0.90;;;0.80;;
40501;SDS011;29631;49.168;9.848;2022-10-16T06:36:02;1.92;;;1.05;;
40501;SDS011;29631;49.168;9.848;2022-10-16T06:38:30;0.80;;;0.80;;
40501;SDS011;29631;49.168;9.848;2022-10-16T06:40:57;1.00;;;0.90;;
40501;SDS011;29631;49.168;9.848;2022-10-16T06:43:23;3.00;;;0.90;;
40501;SDS011;29631;49.168;9.848;2022-10-16T06:45:53;3.40;;;0.80;;
40501;SDS011;29631;49.168;9.848;2022-10-16T06:48:20;0.90;;;0.80;;
40501;SDS011;29631;49.168;9.848;2022-10-16T06:50:57;1.10;;;1.00;;
40501;SDS011;29631;49.168;9.848;2022-10-16T06:53:35;0.77;;;0.70;;
40501;SDS011;29631;49.168;9.848;2022-10-16T06:56:07;0.90;;;0.90;;
40501;SDS011;29631;49.168;9.848;2022-10-16T06:58:41;1.42;;;0.82;;
40501;SDS011;29631;49.168;9.848;2022-10-16T07:01:08;0.95;;;0.95;;
40501;SDS011;29631;49.168;9.848;2022-10-16T07:03:36;1.63;;;1.05;;
40501;SDS011;29631;49.168;9.848;2022-10-16T07:06:04;2.85;;;0.90;;
40501;SDS011;29631;49.168;9.848;2022-10-16T07:08:32;3.22;;;1.17;;
40501;SDS011;29631;49.168;9.848;2022-10-16T07:11:00;1.10;;;1.00;;
40501;SDS011;29631;49.168;9.848;2022-10-16T07:13:34;1.10;;;1.00;;
40501;SDS011;29631;49.168;9.848;2022-10-16T07:16:09;1.02;;;1.02;;
40501;SDS011;29631;49.168;9.848;2022-10-16T07:18:37;1.40;;;1.00;;
40501;SDS011;29631;49.168;9.848;2022-10-16T07:21:06;1.10;;;1.00;;
40501;SDS011;29631;49.168;9.848;2022-10-16T07:23:54;1.20;;;1.10;;
40501;SDS011;29631;49.168;9.848;2022-10-16T07:26:24;1.02;;;0.93;;
40501;SDS011;29631;49.168;9.848;2022-10-16T07:28:50;0.90;;;0.90;;
40501;SDS011;29631;49.168;9.848;2022-10-16T07:31:17;2.28;;;1.30;;
40501;SDS011;29631;49.168;9.848;2022-10-16T07:33:45;0.90;;;0.90;;
40501;SDS011;29631;49.168;9.848;2022-10-16T07:36:13;1.63;;;0.90;;
40501;SDS011;29631;49.168;9.848;2022-10-16T07:38:40;1.00;;;1.00;;
40501;SDS011;29631;49.168;9.848;2022-10-16T07:41:08;3.63;;;0.98;;
40501;SDS011;29631;49.168;9.848;2022-10-16T07:43:37;1.55;;;0.98;;
40501;SDS011;29631;49.168;9.848;2022-10-16T07:46:03;1.10;;;1.00;;
40501;SDS011;29631;49.168;9.848;2022-10-16T07:48:30;0.95;;;0.95;;
40501;SDS011;29631;49.168;9.848;2022-10-16T07:50:59;1.52;;;0.95;;
40501;SDS011;29631;49.168;9.848;2022-10-16T07:53:30;0.90;;;0.80;;
40501;SDS011;29631;49.168;9.848;2022-10-16T07:55:57;1.10;;;1.10;;
40501;SDS011;29631;49.168;9.848;2022-10-16T07:58:29;1.00;;;1.00;;
40501;SDS011;29631;49.168;9.848;2022-10-16T08:00:55;1.85;;;1.10;;
40501;SDS011;29631;49.168;9.848;2022-10-16T08:03:23;1.10;;;1.00;;
40501;SDS011;29631;49.168;9.848;2022-10-16T08:05:50;2.05;;;0.98;;
40501;SDS011;29631;49.168;9.848;2022-10-16T08:08:17;0.93;;;0.93;;
40501;SDS011;29631;49.168;9.848;2022-10-16T08:10:44;0.88;;;0.88;;
40501;SDS011;29631;49.168;9.848;2022-10-16T08:13:10;1.90;;;1.13;;
40501;SDS011;29631;49.168;9.848;2022-10-16T08:15:36;2.70;;;0.80;;
40501;SDS011;29631;49.168;9.848;2022-10-16T08:18:02;4.50;;;1.20;;
40501;SDS011;29631;49.168;9.848;2022-10-16T08:20:30;1.63;;;1.05;;
40501;SDS011;29631;49.168;9.848;2022-10-16T08:22:59;2.75;;;1.23;;
40501;SDS011;29631;49.168;9.848;2022-10-16T08:25:25;1.00;;;1.00;;
40501;SDS011;29631;49.168;9.848;2022-10-16T08:27:52;1.10;;;1.10;;
40501;SDS011;29631;49.168;9.848;2022-10-16T08:30:18;2.22;;;1.25;;
40501;SDS011;29631;49.168;9.848;2022-10-16T08:32:45;0.98;;;0.98;;
40501;SDS011;29631;49.168;9.848;2022-10-16T08:35:11;0.85;;;0.85;;
40501;SDS011;29631;49.168;9.848;2022-10-16T08:37:39;2.92;;;1.10;;
40501;SDS011;29631;49.168;9.848;2022-10-16T08:40:06;1.10;;;1.10;;
40501;SDS011;29631;49.168;9.848;2022-10-16T08:42:51;1.20;;;1.00;;
40501;SDS011;29631;49.168;9.848;2022-10-16T08:46:05;1.15;;;1.13;;
40501;SDS011;29631;49.168;9.848;2022-10-16T08:48:46;0.93;;;0.93;;
40501;SDS011;29631;49.168;9.848;2022-10-16T08:51:18;1.25;;;1.25;;
40501;SDS011;29631;49.168;9.848;2022-10-16T08:53:49;1.30;;;1.20;;
40501;SDS011;29631;49.168;9.848;2022-10-16T08:56:23;2.05;;;1.15;;
40501;SDS011;29631;49.168;9.848;2022-10-16T08:58:51;1.05;;;1.05;;
40501;SDS011;29631;49.168;9.848;2022-10-16T09:01:19;2.45;;;1.15;;
40501;SDS011;29631;49.168;9.848;2022-10-16T09:09:26;2.20;;;0.90;;
40501;SDS011;29631;49.168;9.848;2022-10-16T09:12:25;1.42;;;0.90;;
40501;SDS011;29631;49.168;9.848;2022-10-16T09:23:28;0.93;;;0.93;;
40501;SDS011;29631;49.168;9.848;2022-10-16T09:25:56;1.33;;;1.30;;
40501;SDS011;29631;49.168;9.848;2022-10-16T09:28:24;3.58;;;1.10;;
40501;SDS011;29631;49.168;9.848;2022-10-16T09:30:50;5.25;;;1.20;;
40501;SDS011;29631;49.168;9.848;2022-10-16T09:33:17;1.40;;;1.30;;
40501;SDS011;29631;49.168;9.848;2022-10-16T09:35:50;2.92;;;1.15;;
40501;SDS011;29631;49.168;9.848;2022-10-16T09:40:49;1.55;;;1.00;;
40501;SDS011;29631;49.168;9.848;2022-10-16T09:43:20;0.98;;;0.98;;
40501;SDS011;29631;49.168;9.848;2022-10-16T09:48:30;3.58;;;1.13;;
40501;SDS011;29631;49.168;9.848;2022-10-16T09:51:05;1.10;;;1.10;;
40501;SDS011;29631;49.168;9.848;2022-10-16T09:53:44;1.38;;;1.33;;
40501;SDS011;29631;49.168;9.848;2022-10-16T09:56:11;2.28;;;1.10;;
40501;SDS011;29631;49.168;9.848;2022-10-16T09:58:51;1.60;;;1.20;;
40501;SDS011;29631;49.168;9.848;2022-10-16T10:01:24;1.50;;;1.38;;
40501;SDS011;29631;49.168;9.848;2022-10-16T10:04:02;2.22;;;1.40;;
40501;SDS011;29631;49.168;9.848;2022-10-16T10:06:30;1.42;;;1.17;;
40501;SDS011;29631;49.168;9.848;2022-10-16T10:09:21;2.40;;;1.58;;
40501;SDS011;29631;49.168;9.848;2022-10-16T10:12:24;1.45;;;1.13;;
40501;SDS011;29631;49.168;9.848;2022-10-16T10:14:57;1.23;;;1.20;;
40501;SDS011;29631;49.168;9.848;2022-10-16T10:17:55;1.25;;;1.13;;
40501;SDS011;29631;49.168;9.848;2022-10-16T10:22:59;1.13;;;1.02;;
40501;SDS011;29631;49.168;9.848;2022-10-16T10:26:10;1.10;;;1.00;;
40501;SDS011;29631;49.168;9.848;2022-10-16T10:36:48;1.02;;;1.02;;
40501;SDS011;29631;49.168;9.848;2022-10-16T10:39:28;0.90;;;0.90;;
40501;SDS011;29631;49.168;9.848;2022-10-16T10:42:28;1.10;;;1.10;;
40501;SDS011;29631;49.168;9.848;2022-10-16T10:48:47;0.80;;;0.80;;
40501;SDS011;29631;49.168;9.848;2022-10-16T10:51:48;1.60;;;1.10;;
40501;SDS011;29631;49.168;9.848;2022-10-16T10:54:35;1.00;;;0.90;;
40501;SDS011;29631;49.168;9.848;2022-10-16T11:00:09;1.30;;;1.17;;
40501;SDS011;29631;49.168;9.848;2022-10-16T11:05:49;1.65;;;1.10;;
40501;SDS011;29631;49.168;9.848;2022-10-16T11:08:26;1.05;;;1.05;;
40501;SDS011;29631;49.168;9.848;2022-10-16T11:11:11;2.17;;;0.93;;
40501;SDS011;29631;49.168;9.848;2022-10-16T11:16:51;1.30;;;1.20;;
40501;SDS011;29631;49.168;9.848;2022-10-16T11:19:29;2.03;;;0.90;;
40501;SDS011;29631;49.168;9.848;2022-10-16T11:23:05;1.58;;;0.90;;
40501;SDS011;29631;49.168;9.848;2022-10-16T11:25:41;1.30;;;0.90;;
40501;SDS011;29631;49.168;9.848;2022-10-16T11:33:24;1.38;;;0.68;;
40501;SDS011;29631;49.168;9.848;2022-10-16T11:36:47;2.45;;;1.10;;
40501;SDS011;29631;49.168;9.848;2022-10-16T11:39:34;0.90;;;0.90;;
40501;SDS011;29631;49.168;9.848;2022-10-16T11:47:37;0.90;;;0.90;;
40501;SDS011;29631;49.168;9.848;2022-10-16T11:52:41;1.42;;;1.08;;
40501;SDS011;29631;49.168;9.848;2022-10-16T11:55:37;1.65;;;0.90;;
40501;SDS011;29631;49.168;9.848;2022-10-16T11:58:13;0.90;;;0.90;;
40501;SDS011;29631;49.168;9.848;2022-10-16T12:00:47;1.20;;;0.90;;
40501;SDS011;29631;49.168;9.848;2022-10-16T12:06:46;0.70;;;0.70;;
40501;SDS011;29631;49.168;9.848;2022-10-16T12:09:34;1.85;;;1.00;;
40501;SDS011;29631;49.168;9.848;2022-10-16T12:12:22;1.38;;;0.90;;
40501;SDS011;29631;49.168;9.848;2022-10-16T12:14:59;1.35;;;0.80;;
40501;SDS011;29631;49.168;9.848;2022-10-16T12:17:46;0.80;;;0.80;;
40501;SDS011;29631;49.168;9.848;2022-10-16T12:22:42;1.23;;;0.85;;
40501;SDS011;29631;49.168;9.848;2022-10-16T12:25:40;1.13;;;0.82;;
40501;SDS011;29631;49.168;9.848;2022-10-16T12:30:40;0.75;;;0.70;;
40501;SDS011;29631;49.168;9.848;2022-10-16T12:36:13;1.02;;;1.02;;
40501;SDS011;29631;49.168;9.848;2022-10-16T12:38:52;1.02;;;0.80;;
40501;SDS011;29631;49.168;9.848;2022-10-16T12:41:30;1.10;;;0.80;;
40501;SDS011;29631;49.168;9.848;2022-10-16T12:44:02;0.95;;;0.95;;
40501;SDS011;29631;49.168;9.848;2022-10-16T12:49:04;1.35;;;0.80;;
40501;SDS011;29631;49.168;9.848;2022-10-16T12:51:41;0.90;;;0.90;;
40501;SDS011;29631;49.168;9.848;2022-10-16T12:56:47;0.80;;;0.80;;
40501;SDS011;29631;49.168;9.848;2022-10-16T13:02:32;2.15;;;0.80;;
40501;SDS011;29631;49.168;9.848;2022-10-16T13:05:49;2.05;;;0.73;;
40501;SDS011;29631;49.168;9.848;2022-10-16T13:08:45;0.80;;;0.80;;
40501;SDS011;29631;49.168;9.848;2022-10-16T13:17:45;0.60;;;0.60;;
40501;SDS011;29631;49.168;9.848;2022-10-16T13:28:46;0.73;;;0.73;;
40501;SDS011;29631;49.168;9.848;2022-10-16T13:31:14;0.73;;;0.73;;
40501;SDS011;29631;49.168;9.848;2022-10-16T13:33:49;1.25;;;0.60;;
40501;SDS011;29631;49.168;9.848;2022-10-16T13:36:24;1.25;;;0.82;;
40501;SDS011;29631;49.168;9.848;2022-10-16T13:42:02;0.60;;;0.60;;
40501;SDS011;29631;49.168;9.848;2022-10-16T13:44:39;0.70;;;0.70;;
40501;SDS011;29631;49.168;9.848;2022-10-16T13:47:15;0.98;;;0.98;;
40501;SDS011;29631;49.168;9.848;2022-10-16T13:49:45;1.08;;;1.00;;
40501;SDS011;29631;49.168;9.848;2022-10-16T13:52:16;1.42;;;0.77;;
40501;SDS011;29631;49.168;9.848;2022-10-16T13:54:46;1.83;;;1.30;;
40501;SDS011;29631;49.168;9.848;2022-10-16T13:57:15;2.30;;;2.20;;
40501;SDS011;29631;49.168;9.848;2022-10-16T13:59:42;4.80;;;4.40;;
40501;SDS011;29631;49.168;9.848;2022-10-16T14:02:18;11.48;;;10.57;;
40501;SDS011;29631;49.168;9.848;2022-10-16T14:04:50;8.80;;;8.10;;
40501;SDS011;29631;49.168;9.848;2022-10-16T14:07:19;4.82;;;4.53;;
40501;SDS011;29631;49.168;9.848;2022-10-16T14:09:51;2.50;;;2.40;;
40501;SDS011;29631;49.168;9.848;2022-10-16T14:12:18;2.08;;;1.70;;
40501;SDS011;29631;49.168;9.848;2022-10-16T14:14:47;1.20;;;1.10;;
40501;SDS011;29631;49.168;9.848;2022-10-16T14:17:26;1.00;;;1.00;;
40501;SDS011;29631;49.168;9.848;2022-10-16T14:19:55;0.75;;;0.73;;
40501;SDS011;29631;49.168;9.848;2022-10-16T14:22:28;1.95;;;1.20;;
40501;SDS011;29631;49.168;9.848;2022-10-16T14:25:15;2.47;;;1.25;;
40501;SDS011;29631;49.168;9.848;2022-10-16T14:27:45;1.70;;;1.60;;
40501;SDS011;29631;49.168;9.848;2022-10-16T14:30:24;1.50;;;1.10;;
40501;SDS011;29631;49.168;9.848;2022-10-16T14:32:54;1.02;;;0.90;;
40501;SDS011;29631;49.168;9.848;2022-10-16T14:35:34;1.75;;;0.77;;
40501;SDS011;29631;49.168;9.848;2022-10-16T14:38:04;4.13;;;1.00;;
40501;SDS011;29631;49.168;9.848;2022-10-16T14:40:45;2.83;;;0.80;;
40501;SDS011;29631;49.168;9.848;2022-10-16T14:43:14;8.63;;;1.05;;
40501;SDS011;29631;49.168;9.848;2022-10-16T14:45:54;3.40;;;0.90;;
40501;SDS011;29631;49.168;9.848;2022-10-16T14:48:21;2.17;;;1.02;;
40501;SDS011;29631;49.168;9.848;2022-10-16T14:50:48;4.45;;;0.82;;
40501;SDS011;29631;49.168;9.848;2022-10-16T14:53:15;10.27;;;1.13;;
40501;SDS011;29631;49.168;9.848;2022-10-16T14:55:41;2.17;;;0.90;;
40501;SDS011;29631;49.168;9.848;2022-10-16T14:58:17;0.70;;;0.70;;
40501;SDS011;29631;49.168;9.848;2022-10-16T15:00:46;1.42;;;0.80;;
40501;SDS011;29631;49.168;9.848;2022-10-16T15:03:12;4.47;;;0.88;;
40501;SDS011;29631;49.168;9.848;2022-10-16T15:05:38;2.92;;;0.80;;
40501;SDS011;29631;49.168;9.848;2022-10-16T15:08:04;2.63;;;1.00;;
40501;SDS011;29631;49.168;9.848;2022-10-16T15:10:30;0.80;;;0.80;;
40501;SDS011;29631;49.168;9.848;2022-10-16T15:12:58;1.30;;;0.80;;
40501;SDS011;29631;49.168;9.848;2022-10-16T15:15:37;3.65;;;1.08;;
40501;SDS011;29631;49.168;9.848;2022-10-16T15:18:07;6.68;;;1.00;;
40501;SDS011;29631;49.168;9.848;2022-10-16T15:20:34;2.90;;;0.95;;
40501;SDS011;29631;49.168;9.848;2022-10-16T15:23:03;2.33;;;0.90;;
40501;SDS011;29631;49.168;9.848;2022-10-16T15:28:16;1.95;;;0.93;;
40501;SDS011;29631;49.168;9.848;2022-10-16T15:30:43;3.85;;;0.95;;
40501;SDS011;29631;49.168;9.848;2022-10-16T15:33:12;1.73;;;0.88;;
40501;SDS011;29631;49.168;9.848;2022-10-16T15:35:51;1.25;;;1.00;;
40501;SDS011;29631;49.168;9.848;2022-10-16T15:38:18;4.85;;;1.02;;
40501;SDS011;29631;49.168;9.848;2022-10-16T15:40:46;2.42;;;1.00;;
40501;SDS011;29631;49.168;9.848;2022-10-16T15:43:13;4.28;;;1.00;;
40501;SDS011;29631;49.168;9.848;2022-10-16T15:45:39;5.93;;;1.00;;
40501;SDS011;29631;49.168;9.848;2022-10-16T15:48:05;5.32;;;1.10;;
40501;SDS011;29631;49.168;9.848;2022-10-16T15:50:34;1.75;;;1.08;;
40501;SDS011;29631;49.168;9.848;2022-10-16T15:53:03;1.25;;;1.10;;
40501;SDS011;29631;49.168;9.848;2022-10-16T15:55:29;1.00;;;1.00;;
40501;SDS011;29631;49.168;9.848;2022-10-16T15:57:55;1.60;;;1.10;;
40501;SDS011;29631;49.168;9.848;2022-10-16T16:00:20;3.67;;;1.10;;
40501;SDS011;29631;49.168;9.848;2022-10-16T16:02:51;1.80;;;1.10;;
40501;SDS011;29631;49.168;9.848;2022-10-16T16:05:18;2.17;;;1.10;;
40501;SDS011;29631;49.168;9.848;2022-10-16T16:07:46;2.65;;;0.93;;
40501;SDS011;29631;49.168;9.848;2022-10-16T16:10:12;3.13;;;0.93;;
40501;SDS011;29631;49.168;9.848;2022-10-16T16:12:38;3.17;;;1.05;;
40501;SDS011;29631;49.168;9.848;2022-10-16T16:15:05;2.10;;;1.50;;
40501;SDS011;29631;49.168;9.848;2022-10-16T16:17:32;1.63;;;1.40;;
40501;SDS011;29631;49.168;9.848;2022-10-16T16:19:59;2.50;;;1.60;;
40501;SDS011;29631;49.168;9.848;2022-10-16T16:22:26;4.25;;;1.55;;
40501;SDS011;29631;49.168;9.848;2022-10-16T16:24:52;4.05;;;1.27;;
40501;SDS011;29631;49.168;9.848;2022-10-16T16:27:18;3.72;;;1.52;;
40501;SDS011;29631;49.168;9.848;2022-10-16T16:29:45;2.25;;;1.30;;
40501;SDS011;29631;49.168;9.848;2022-10-16T16:32:11;1.92;;;1.25;;
40501;SDS011;29631;49.168;9.848;2022-10-16T16:34:37;2.38;;;1.40;;
40501;SDS011;29631;49.168;9.848;2022-10-16T16:37:03;1.40;;;1.30;;
40501;SDS011;29631;49.168;9.848;2022-10-16T16:39:29;1.73;;;1.42;;
40501;SDS011;29631;49.168;9.848;2022-10-16T16:41:55;2.63;;;1.42;;
40501;SDS011;29631;49.168;9.848;2022-10-16T16:44:23;8.23;;;1.30;;
40501;SDS011;29631;49.168;9.848;2022-10-16T16:46:49;6.30;;;1.42;;
40501;SDS011;29631;49.168;9.848;2022-10-16T16:49:15;1.65;;;1.10;;
40501;SDS011;29631;49.168;9.848;2022-10-16T16:51:41;5.88;;;1.20;;
40501;SDS011;29631;49.168;9.848;2022-10-16T16:54:07;4.22;;;1.33;;
40501;SDS011;29631;49.168;9.848;2022-10-16T16:56:34;1.35;;;1.25;;
40501;SDS011;29631;49.168;9.848;2022-10-16T16:59:00;3.92;;;1.30;;
40501;SDS011;29631;49.168;9.848;2022-10-16T17:01:26;3.88;;;1.20;;
40501;SDS011;29631;49.168;9.848;2022-10-16T17:03:54;1.20;;;1.20;;
40501;SDS011;29631;49.168;9.848;2022-10-16T17:06:23;2.78;;;1.20;;
40501;SDS011;29631;49.168;9.848;2022-10-16T17:08:51;1.35;;;1.20;;